Time;durP1;ratioP1;P1;durP2;ratioP2;P2;SDS_P1;SDS_P2;PMS_P1;PMS_P2;Temp;Humidity;BMP_temperature;BMP_pressure;BME280_temperature;BME280_humidity;BME280_pressure;Samples;Min_cycle;Max_cycle;Signal;HPM_P1;HPM_P2
2020/12/20 00:01:55;;;;;;;3.88;2.28;;;;;;;20.93;45.23;99934.25;5012250;28;20113;-73
2020/12/20 00:04:20;;;;;;;2.60;1.90;;;;;;;20.94;45.22;99930.69;5013136;28;20113;-75
2020/12/20 00:06:46;;;;;;;3.78;2.30;;;;;;;20.92;45.40;99932.53;5012740;28;20034;-77
2020/12/20 00:09:15;;;;;;;2.90;2.20;;;;;;;20.94;45.26;99937.72;5013122;28;20069;-78
2020/12/20 00:11:42;;;;;;;4.20;2.10;;;;;;;20.93;45.43;99936.00;5006400;28;20069;-79
2020/12/20 00:14:27;;;;;;;4.88;2.10;;;;;;;20.93;45.24;99938.63;4992915;28;20054;-78
2020/12/20 00:17:10;;;;;;;3.25;1.70;;;;;;;20.89;45.06;99932.59;4992970;28;20096;-78
2020/12/20 00:19:36;;;;;;;3.55;2.05;;;;;;;20.89;45.46;99931.72;4993235;28;20529;-77
2020/12/20 00:22:07;;;;;;;4.85;2.10;;;;;;;20.90;45.25;99938.72;4992580;28;20029;-79
2020/12/20 00:24:33;;;;;;;3.53;1.83;;;;;;;20.92;45.39;99944.81;4993155;28;20066;-77
2020/12/20 00:27:00;;;;;;;3.00;1.80;;;;;;;20.90;45.45;99943.97;5007082;28;20064;-78
2020/12/20 00:29:31;;;;;;;3.13;1.65;;;;;;;20.90;45.48;99949.25;5012598;28;20084;-75
2020/12/20 00:31:57;;;;;;;3.22;1.90;;;;;;;20.88;45.56;99943.16;5009903;28;20519;-78
2020/12/20 00:34:23;;;;;;;3.33;2.00;;;;;;;20.87;45.21;99951.97;4991485;28;20039;-79
2020/12/20 00:36:49;;;;;;;3.40;2.00;;;;;;;20.89;45.54;99952.78;4992691;28;20518;-79
2020/12/20 00:39:17;;;;;;;3.38;1.50;;;;;;;20.90;45.59;99954.50;4992975;28;20038;-74
2020/12/20 00:41:49;;;;;;;3.15;1.80;;;;;;;20.89;45.34;99948.41;4992734;28;20030;-79
2020/12/20 00:44:14;;;;;;;3.22;1.80;;;;;;;20.88;45.35;99957.22;4992598;28;20046;-80
2020/12/20 00:46:40;;;;;;;3.03;1.90;;;;;;;20.87;45.40;99958.13;4992420;28;20045;-73
2020/12/20 00:49:05;;;;;;;3.58;1.65;;;;;;;20.87;45.44;99959.88;4992279;28;20399;-77
2020/12/20 00:51:31;;;;;;;2.80;1.50;;;;;;;20.86;45.61;99959.00;4992738;28;20030;-76
2020/12/20 00:53:57;;;;;;;3.17;1.70;;;;;;;20.87;45.63;99959.88;4992720;28;20178;-75
2020/12/20 00:56:22;;;;;;;2.78;1.60;;;;;;;20.86;45.36;99969.56;5007786;28;20064;-78
2020/12/20 00:58:47;;;;;;;2.92;1.50;;;;;;;20.87;45.54;99971.28;4993280;28;20398;-73
2020/12/20 01:01:13;;;;;;;2.38;1.70;;;;;;;20.87;45.60;99971.28;4992550;28;20030;-78
2020/12/20 01:03:38;;;;;;;2.10;1.25;;;;;;;20.86;45.42;99966.91;4991802;28;20034;-77
2020/12/20 01:06:04;;;;;;;3.00;1.63;;;;;;;20.86;45.41;99971.34;5002441;28;20077;-79
2020/12/20 01:08:29;;;;;;;3.05;1.67;;;;;;;20.86;45.40;99969.56;5012276;28;20038;-78
2020/12/20 01:10:55;;;;;;;3.97;1.63;;;;;;;20.84;45.41;99966.09;5012089;28;20490;-74
2020/12/20 01:13:20;;;;;;;2.78;1.48;;;;;;;20.87;45.69;99967.75;5027217;28;20049;-75
2020/12/20 01:15:47;;;;;;;2.97;1.65;;;;;;;20.86;45.60;99960.81;5008910;28;20045;-75
2020/12/20 01:18:12;;;;;;;3.20;1.40;;;;;;;20.86;45.46;99964.28;4991926;28;20035;-78
2020/12/20 01:20:39;;;;;;;4.00;1.88;;;;;;;20.84;45.53;99951.16;4992280;28;20057;-73
2020/12/20 01:23:05;;;;;;;2.75;1.48;;;;;;;20.84;45.55;99956.44;5006075;28;20041;-78
2020/12/20 01:25:30;;;;;;;3.08;1.70;;;;;;;20.87;45.58;99968.66;5011882;28;20042;-79
2020/12/20 01:27:56;;;;;;;2.15;1.00;;;;;;;20.84;45.63;99953.81;5023934;28;20030;-77
2020/12/20 01:30:21;;;;;;;2.70;1.52;;;;;;;20.84;45.39;99952.91;4992184;28;20031;-79
2020/12/20 01:32:47;;;;;;;2.85;1.58;;;;;;;20.84;45.64;99956.44;4999921;28;20033;-77
2020/12/20 01:35:13;;;;;;;2.85;1.33;;;;;;;20.82;45.52;99946.84;5011537;28;20113;-77
2020/12/20 01:37:38;;;;;;;2.25;1.40;;;;;;;20.82;45.65;99946.84;5011970;28;20525;-78
2020/12/20 01:40:05;;;;;;;3.38;1.90;;;;;;;20.79;45.69;99945.16;5010174;28;20136;-77
2020/12/20 01:42:30;;;;;;;2.95;1.33;;;;;;;20.79;45.61;99947.78;4992163;28;20109;-76
2020/12/20 01:44:56;;;;;;;3.05;1.75;;;;;;;20.80;45.82;99946.88;5000799;28;20498;-75
2020/12/20 01:47:22;;;;;;;1.70;1.15;;;;;;;20.79;45.57;99947.78;5011167;28;20054;-75
2020/12/20 01:49:48;;;;;;;2.47;1.30;;;;;;;20.78;45.52;99942.59;5011516;28;20030;-72
2020/12/20 01:52:14;;;;;;;2.65;1.52;;;;;;;20.80;45.64;99940.75;5011654;28;20038;-78
2020/12/20 01:54:44;;;;;;;3.90;1.95;;;;;;;20.78;45.67;99943.44;5011674;28;20034;-75
2020/12/20 01:57:10;;;;;;;2.00;1.35;;;;;;;20.79;45.54;99946.91;5014334;28;20034;-74
2020/12/20 01:59:35;;;;;;;2.00;1.50;;;;;;;20.80;45.62;99953.91;5015535;28;20033;-77
2020/12/20 02:02:01;;;;;;;3.35;1.58;;;;;;;20.79;45.66;99957.44;5014685;28;20152;-74
2020/12/20 02:04:27;;;;;;;2.47;1.50;;;;;;;20.79;45.52;99955.69;5015424;28;20112;-77
2020/12/20 02:06:52;;;;;;;2.58;1.42;;;;;;;20.78;45.50;99953.97;5015277;28;20042;-79
2020/12/20 02:09:19;;;;;;;2.63;1.38;;;;;;;20.78;45.48;99948.69;5015293;28;20042;-74
2020/12/20 02:11:44;;;;;;;2.42;1.33;;;;;;;20.78;45.51;99943.44;5015209;28;20491;-78
2020/12/20 02:14:10;;;;;;;2.15;1.45;;;;;;;20.76;45.58;99942.59;5012827;28;20038;-78
2020/12/20 02:16:36;;;;;;;3.45;1.60;;;;;;;20.76;45.72;99950.50;4994956;28;20046;-75
2020/12/20 02:19:01;;;;;;;2.80;1.20;;;;;;;20.77;45.74;99954.03;4995387;28;20372;-78
2020/12/20 02:21:26;;;;;;;2.25;1.20;;;;;;;20.76;45.73;99955.78;4995507;28;20407;-79
2020/12/20 02:23:53;;;;;;;3.35;1.63;;;;;;;20.76;45.81;99966.31;4995272;28;20404;-77
2020/12/20 02:26:21;;;;;;;2.67;1.45;;;;;;;20.78;45.94;99966.28;5004246;28;20041;-76
2020/12/20 02:28:52;;;;;;;1.63;1.42;;;;;;;20.77;45.41;99968.03;5034795;28;20037;-77
2020/12/20 02:31:18;;;;;;;2.65;1.42;;;;;;;20.78;45.47;99963.66;5034405;28;20041;-76
2020/12/20 02:33:43;;;;;;;2.95;1.58;;;;;;;20.78;45.78;99961.88;5017343;28;20447;-78
2020/12/20 02:36:10;;;;;;;2.58;1.10;;;;;;;20.77;45.58;99961.91;5014534;28;20120;-73
2020/12/20 02:38:35;;;;;;;3.60;1.70;;;;;;;20.77;45.78;99956.66;5014827;28;20524;-73
2020/12/20 02:41:00;;;;;;;1.83;1.20;;;;;;;20.78;45.70;99959.22;5014824;28;20030;-77
2020/12/20 02:43:26;;;;;;;7.63;1.33;;;;;;;20.79;45.44;99965.34;5013323;28;20030;-73
2020/12/20 02:45:52;;;;;;;2.08;1.08;;;;;;;20.77;45.74;99956.66;5001879;28;20034;-78
2020/12/20 02:48:17;;;;;;;2.72;1.20;;;;;;;20.77;45.71;99959.28;4994756;28;20047;-77
2020/12/20 02:50:43;;;;;;;2.75;1.48;;;;;;;20.76;45.75;99957.56;4994965;28;20041;-78
2020/12/20 02:53:09;;;;;;;2.28;1.17;;;;;;;20.75;45.62;99954.03;4994538;28;20443;-77
2020/12/20 02:55:34;;;;;;;2.60;1.40;;;;;;;20.76;45.72;99968.09;4993621;28;20038;-75
2020/12/20 02:58:00;;;;;;;3.38;1.20;;;;;;;20.75;45.59;99972.47;4994682;28;20076;-77
2020/12/20 03:00:25;;;;;;;2.83;1.48;;;;;;;20.76;45.75;99971.56;4994441;28;20026;-73
2020/12/20 03:02:51;;;;;;;2.72;1.45;;;;;;;20.76;45.61;99973.34;4994488;28;20041;-77
2020/12/20 03:05:17;;;;;;;2.20;1.20;;;;;;;20.75;45.54;99972.47;4993629;28;20027;-77
2020/12/20 03:07:44;;;;;;;3.53;1.58;;;;;;;20.76;45.61;99978.63;4994357;28;20038;-76
2020/12/20 03:10:09;;;;;;;2.08;1.20;;;;;;;20.74;45.63;99973.34;4994879;28;20368;-78
2020/12/20 03:12:34;;;;;;;3.65;1.50;;;;;;;20.73;45.66;99976.88;4998037;28;20041;-76
2020/12/20 03:15:00;;;;;;;2.28;0.98;;;;;;;20.73;45.63;99973.41;5014261;28;20045;-76
2020/12/20 03:17:25;;;;;;;2.97;1.40;;;;;;;20.73;45.74;99978.66;4997353;28;20117;-78
2020/12/20 03:19:51;;;;;;;3.90;1.60;;;;;;;20.74;45.69;99975.13;4994188;28;20084;-78
2020/12/20 03:22:16;;;;;;;3.20;1.38;;;;;;;20.73;45.96;99976.88;5001114;28;20034;-74
2020/12/20 03:24:42;;;;;;;2.30;1.23;;;;;;;20.73;45.66;99974.25;5014012;28;20037;-77
2020/12/20 03:27:08;;;;;;;3.65;1.45;;;;;;;20.72;45.75;99961.97;5011180;28;20038;-79
2020/12/20 03:29:33;;;;;;;3.85;1.70;;;;;;;20.72;45.66;99959.34;4993913;28;20398;-78
2020/12/20 03:31:59;;;;;;;2.53;1.13;;;;;;;20.72;45.77;99958.50;4993906;28;20081;-73
2020/12/20 03:34:24;;;;;;;2.50;1.00;;;;;;;20.72;45.67;99953.25;4996210;28;20034;-78
2020/12/20 03:36:50;;;;;;;2.50;1.38;;;;;;;20.71;45.58;99944.47;4994195;28;20122;-73
2020/12/20 03:39:16;;;;;;;2.08;1.20;;;;;;;20.72;45.82;99958.50;4998161;28;20034;-74
2020/12/20 03:41:42;;;;;;;2.00;1.10;;;;;;;20.74;45.56;99954.91;4999018;28;20399;-78
2020/12/20 03:44:07;;;;;;;3.42;1.15;;;;;;;20.72;45.64;99955.88;4993470;28;20046;-77
2020/12/20 03:46:33;;;;;;;3.97;1.27;;;;;;;20.72;45.64;99955.88;4993583;28;20064;-73
2020/12/20 03:48:58;;;;;;;2.67;1.17;;;;;;;20.72;45.67;99950.59;4993697;28;20034;-76
2020/12/20 03:51:24;;;;;;;3.63;1.40;;;;;;;20.71;45.81;99952.34;4993864;28;20041;-78
2020/12/20 03:53:49;;;;;;;3.30;1.58;;;;;;;20.72;45.69;99954.09;4993774;28;20043;-78
2020/12/20 03:56:15;;;;;;;3.20;1.35;;;;;;;20.72;45.68;99955.88;4993572;28;20066;-77
2020/12/20 03:58:40;;;;;;;1.52;1.10;;;;;;;20.71;45.85;99949.72;4993499;28;20030;-75
2020/12/20 04:01:06;;;;;;;2.40;1.27;;;;;;;20.72;45.69;99950.59;4993672;28;20105;-73
2020/12/20 04:03:31;;;;;;;3.75;1.48;;;;;;;20.74;45.59;99960.19;4993778;28;20103;-77
2020/12/20 04:05:56;;;;;;;1.80;1.15;;;;;;;20.73;45.67;99947.91;4993350;28;20503;-78
2020/12/20 04:08:22;;;;;;;2.58;1.00;;;;;;;20.72;45.82;99953.25;4994539;28;20047;-73
2020/12/20 04:10:47;;;;;;;3.42;1.50;;;;;;;20.69;45.70;99956.81;4993284;28;20041;-76
2020/12/20 04:13:12;;;;;;;2.90;1.35;;;;;;;20.72;45.71;99958.50;4992997;28;20093;-76
2020/12/20 04:15:38;;;;;;;2.35;0.98;;;;;;;20.71;45.79;99964.69;4992768;28;20108;-75
2020/12/20 04:18:03;;;;;;;2.50;1.27;;;;;;;20.71;45.98;99964.69;4992142;28;20121;-77
2020/12/20 04:20:29;;;;;;;2.28;1.10;;;;;;;20.69;45.65;99962.09;4992921;28;20045;-73
2020/12/20 04:22:55;;;;;;;2.05;1.08;;;;;;;20.68;45.91;99961.22;5000464;28;20047;-79
2020/12/20 04:25:20;;;;;;;2.30;1.20;;;;;;;20.69;45.66;99968.22;4991960;28;20042;-77
2020/12/20 04:27:48;;;;;;;2.42;1.02;;;;;;;20.69;45.66;99962.94;5025268;28;20034;-76
2020/12/20 04:30:14;;;;;;;3.28;1.27;;;;;;;20.71;45.77;99967.31;5032343;28;20521;-77
2020/12/20 04:32:40;;;;;;;3.13;1.20;;;;;;;20.70;45.69;99966.47;5032298;28;20044;-79
2020/12/20 04:35:06;;;;;;;3.05;1.25;;;;;;;20.69;45.52;99962.09;5003041;28;20042;-74
2020/12/20 04:37:31;;;;;;;4.43;1.50;;;;;;;20.67;45.80;99959.50;5012741;28;20092;-76
2020/12/20 04:39:56;;;;;;;2.90;1.30;;;;;;;20.67;45.65;99967.38;5012001;28;20597;-75
2020/12/20 04:42:22;;;;;;;1.92;0.95;;;;;;;20.68;45.71;99978.78;4992518;28;20105;-78
2020/12/20 04:44:48;;;;;;;2.22;1.20;;;;;;;20.68;45.84;99976.16;4993127;28;20105;-76
2020/12/20 04:47:15;;;;;;;1.73;0.98;;;;;;;20.68;45.50;99977.00;4992535;28;20042;-78
2020/12/20 04:49:44;;;;;;;2.15;1.17;;;;;;;20.68;45.82;99976.16;4992603;28;20403;-76
2020/12/20 04:52:11;;;;;;;2.00;1.15;;;;;;;20.66;45.91;99976.19;4992741;28;20450;-76
2020/12/20 04:54:38;;;;;;;2.28;1.33;;;;;;;20.67;45.70;99980.53;4992722;28;20034;-72
2020/12/20 04:57:06;;;;;;;2.13;1.15;;;;;;;20.68;45.86;99987.53;4992410;28;20030;-79
2020/12/20 04:59:33;;;;;;;2.42;1.27;;;;;;;20.67;45.70;99985.81;4992568;28;20045;-73
2020/12/20 05:01:59;;;;;;;3.58;1.23;;;;;;;20.66;45.81;99986.72;4992047;28;20034;-73
2020/12/20 05:04:24;;;;;;;4.75;1.90;;;;;;;20.66;45.66;99997.25;5008597;28;20061;-78
2020/12/20 05:06:49;;;;;;;2.45;1.20;;;;;;;20.65;45.79;99997.31;5011827;28;20111;-74
2020/12/20 05:09:15;;;;;;;3.00;1.27;;;;;;;20.68;45.69;100000.72;5011868;28;20038;-77
2020/12/20 05:11:43;;;;;;;2.95;1.17;;;;;;;20.67;45.59;100006.88;5010226;28;20038;-77
2020/12/20 05:14:12;;;;;;;2.13;1.10;;;;;;;20.65;45.85;100003.41;5012159;28;20033;-74
2020/12/20 05:16:39;;;;;;;3.85;1.50;;;;;;;20.65;45.87;100008.69;4999590;28;20400;-74
2020/12/20 05:19:06;;;;;;;3.00;1.00;;;;;;;20.65;45.73;100008.69;4992886;28;20487;-77
2020/12/20 05:21:33;;;;;;;2.78;0.98;;;;;;;20.65;45.78;100000.78;4998399;28;20117;-79
2020/12/20 05:24:00;;;;;;;2.97;1.35;;;;;;;20.67;45.64;100006.88;4994908;28;20525;-78
2020/12/20 05:26:26;;;;;;;3.35;1.30;;;;;;;20.66;45.63;100007.78;5017181;28;20116;-78
2020/12/20 05:28:52;;;;;;;3.38;1.25;;;;;;;20.65;45.73;100011.31;5000351;28;20077;-77
2020/12/20 05:31:18;;;;;;;3.22;1.23;;;;;;;20.65;45.95;100002.56;4996751;28;20069;-77
2020/12/20 05:33:43;;;;;;;2.97;1.23;;;;;;;20.67;45.73;100001.63;4998575;28;20038;-77
2020/12/20 05:36:09;;;;;;;3.80;1.50;;;;;;;20.66;45.79;99994.63;4996132;28;20038;-77
2020/12/20 05:38:36;;;;;;;2.95;1.40;;;;;;;20.68;45.66;99994.59;4996193;28;20030;-78
2020/12/20 05:41:02;;;;;;;2.08;0.90;;;;;;;20.68;45.73;99997.22;4995991;28;20034;-79
2020/12/20 05:43:28;;;;;;;3.47;1.35;;;;;;;20.67;45.83;99993.72;4996220;28;20097;-73
2020/12/20 05:45:58;;;;;;;4.07;1.33;;;;;;;20.67;45.65;99991.09;4996657;28;20034;-74
2020/12/20 05:48:25;;;;;;;3.65;1.17;;;;;;;20.67;45.73;99996.34;4996045;28;20145;-78
2020/12/20 05:51:02;;;;;;;2.78;1.58;;;;;;;20.66;45.55;99999.88;4995900;28;20034;-75
2020/12/20 05:53:33;;;;;;;2.63;1.15;;;;;;;20.67;45.60;99998.97;4995753;28;20044;-77
2020/12/20 05:56:00;;;;;;;4.00;1.52;;;;;;;20.66;45.59;99999.88;4995628;28;20466;-77
2020/12/20 05:58:30;;;;;;;2.75;1.23;;;;;;;20.66;45.70;100004.28;4995993;28;20050;-74
2020/12/20 06:00:57;;;;;;;3.72;1.23;;;;;;;20.66;45.85;100002.50;4995719;28;21014;-73
2020/12/20 06:03:23;;;;;;;4.22;1.35;;;;;;;20.67;45.84;100006.03;4996641;28;20434;-76
2020/12/20 06:05:49;;;;;;;3.00;1.33;;;;;;;20.66;45.65;100005.16;4995745;28;20050;-78
2020/12/20 06:08:19;;;;;;;3.33;1.23;;;;;;;20.65;45.80;100008.69;4995268;28;20069;-75
2020/12/20 06:10:52;;;;;;;2.28;1.10;;;;;;;20.63;45.81;100015.75;4995550;28;20050;-76
2020/12/20 06:13:20;;;;;;;2.53;1.20;;;;;;;20.65;45.71;100023.63;4995746;28;20109;-74
2020/12/20 06:15:50;;;;;;;3.83;1.45;;;;;;;20.63;45.87;100021.03;4997642;28;20081;-76
2020/12/20 06:18:26;;;;;;;2.47;1.00;;;;;;;20.62;45.62;100014.06;5014952;28;20112;-74
2020/12/20 06:20:51;;;;;;;3.97;1.13;;;;;;;20.62;45.70;100019.31;5015169;28;20033;-75
2020/12/20 06:23:18;;;;;;;1.60;0.85;;;;;;;20.64;45.66;100024.53;5014942;28;20048;-77
2020/12/20 06:25:45;;;;;;;2.40;1.30;;;;;;;20.63;45.85;100021.03;5015037;28;20046;-78
2020/12/20 06:28:16;;;;;;;3.80;1.20;;;;;;;20.62;45.63;100023.69;5034614;28;20029;-72
2020/12/20 06:30:41;;;;;;;3.25;1.20;;;;;;;20.62;45.69;100019.31;5034393;28;20033;-77
2020/12/20 06:33:12;;;;;;;1.88;1.08;;;;;;;20.62;45.61;100018.44;5004831;28;20050;-81
2020/12/20 06:35:40;;;;;;;3.97;1.23;;;;;;;20.62;45.73;100007.91;4995043;28;20125;-76
2020/12/20 06:38:12;;;;;;;2.97;1.20;;;;;;;20.62;45.80;100015.81;4994745;28;20042;-75
2020/12/20 06:40:37;;;;;;;2.70;1.10;;;;;;;20.62;45.64;100013.19;4994306;28;20031;-77
2020/12/20 06:43:03;;;;;;;2.00;1.08;;;;;;;20.63;45.83;100005.22;4995029;28;20046;-77
2020/12/20 06:45:30;;;;;;;3.42;1.33;;;;;;;20.62;45.77;100014.06;4993919;28;20042;-72
2020/12/20 06:48:03;;;;;;;4.47;1.35;;;;;;;20.63;45.63;100005.22;4994373;28;20046;-75
2020/12/20 06:50:49;;;;;;;4.23;1.23;;;;;;;20.62;45.60;100019.31;5001825;28;20552;-74
2020/12/20 06:53:16;;;;;;;2.75;1.10;;;;;;;20.64;45.75;100006.09;5009085;28;20096;-78
2020/12/20 06:55:42;;;;;;;2.53;1.17;;;;;;;20.62;45.76;100013.19;4994705;28;20034;-78
2020/12/20 06:58:17;;;;;;;2.63;1.40;;;;;;;20.61;45.68;100011.44;4994789;28;20118;-77
2020/12/20 07:00:42;;;;;;;4.47;1.25;;;;;;;20.62;45.81;100013.19;5007659;28;20049;-77
2020/12/20 07:03:10;;;;;;;3.85;1.50;;;;;;;20.61;45.56;100020.22;5013134;28;20046;-80
2020/12/20 07:05:40;;;;;;;3.33;1.40;;;;;;;20.62;45.82;100027.22;5014339;28;20037;-74
2020/12/20 07:08:22;;;;;;;1.73;1.13;;;;;;;20.60;45.73;100029.03;5013966;28;20121;-73
2020/12/20 07:10:52;;;;;;;3.72;1.17;;;;;;;20.62;45.74;100024.59;5014123;28;20129;-79
2020/12/20 07:13:41;;;;;;;2.03;1.30;;;;;;;20.61;45.51;100032.50;5013985;28;20148;-81
2020/12/20 07:16:10;;;;;;;4.88;1.70;;;;;;;20.61;45.84;100032.50;5004100;28;20046;-74
2020/12/20 07:19:04;;;;;;;2.95;1.27;;;;;;;20.60;45.78;100041.31;4993465;28;20077;-74
2020/12/20 07:21:29;;;;;;;4.57;1.42;;;;;;;20.61;45.86;100045.66;4993858;28;20042;-78
2020/12/20 07:24:04;;;;;;;2.67;1.33;;;;;;;20.59;45.81;100045.72;5013443;28;20095;-77
2020/12/20 07:26:30;;;;;;;3.88;1.35;;;;;;;20.59;45.79;100045.72;5019898;28;20033;-75
2020/12/20 07:29:03;;;;;;;2.60;1.20;;;;;;;20.59;45.62;100043.09;5032379;28;20037;-72
2020/12/20 07:31:29;;;;;;;2.90;1.30;;;;;;;20.59;45.66;100035.19;5033449;28;20040;-78
2020/12/20 07:33:55;;;;;;;4.47;1.67;;;;;;;20.59;45.62;100040.47;5018713;28;20052;-75
2020/12/20 07:36:22;;;;;;;3.45;1.75;;;;;;;20.60;45.77;100043.94;4994396;28;20038;-73
2020/12/20 07:38:48;;;;;;;2.30;1.30;;;;;;;20.61;45.71;100037.78;4994546;28;20043;-78
2020/12/20 07:41:16;;;;;;;3.20;1.13;;;;;;;20.62;45.83;100039.50;4994973;28;20034;-76
2020/12/20 07:43:42;;;;;;;3.97;1.40;;;;;;;20.61;45.82;100040.41;4997416;28;20041;-76
2020/12/20 07:46:10;;;;;;;2.40;1.40;;;;;;;20.60;45.84;100043.94;5012896;28;20065;-77
2020/12/20 07:48:36;;;;;;;2.65;1.02;;;;;;;20.61;45.70;100053.56;5013493;28;20057;-77
2020/12/20 07:51:19;;;;;;;2.67;1.48;;;;;;;20.59;45.66;100058.00;5011870;28;20037;-79
2020/12/20 07:53:49;;;;;;;2.33;1.15;;;;;;;20.60;45.70;100063.25;5013402;28;20053;-77
2020/12/20 07:56:32;;;;;;;3.00;1.40;;;;;;;20.58;45.88;100065.03;5012017;28;20038;-78
2020/12/20 07:59:03;;;;;;;2.88;1.33;;;;;;;20.59;45.68;100069.41;5011640;28;20052;-79
2020/12/20 08:01:28;;;;;;;4.55;1.70;;;;;;;20.62;45.58;100065.81;5013229;28;20459;-75
2020/12/20 08:04:09;;;;;;;4.65;1.48;;;;;;;20.63;45.67;100078.09;5010965;28;20064;-77
2020/12/20 08:06:38;;;;;;;9.23;1.50;;;;;;;20.65;45.45;100071.88;5009384;28;20077;-77
2020/12/20 08:09:17;;;;;;;7.10;1.50;;;;;;;20.67;45.64;100077.97;5008359;28;20072;-78
2020/12/20 08:11:45;;;;;;;4.28;1.38;;;;;;;20.70;45.62;100079.69;4995495;28;20065;-78
2020/12/20 08:14:13;;;;;;;14.95;1.63;;;;;;;20.72;45.73;100083.09;5011484;28;20030;-77
2020/12/20 08:16:43;;;;;;;4.75;1.63;;;;;;;20.75;45.59;100080.44;5003413;28;20129;-79
2020/12/20 08:19:14;;;;;;;8.50;1.60;;;;;;;20.74;45.59;100078.69;4997858;28;20061;-77
2020/12/20 08:21:48;;;;;;;6.93;1.70;;;;;;;20.75;45.48;100084.81;4993346;28;20496;-77
2020/12/20 08:24:14;;;;;;;5.47;1.33;;;;;;;20.77;45.60;100085.69;5026120;28;20041;-77
2020/12/20 08:26:41;;;;;;;4.47;1.30;;;;;;;20.76;45.69;100091.84;5025268;28;20091;-77
2020/12/20 08:29:07;;;;;;;3.30;1.52;;;;;;;20.77;45.46;100085.69;5012421;28;20030;-78
2020/12/20 08:31:34;;;;;;;5.22;1.55;;;;;;;20.80;45.54;100088.22;5011093;28;20399;-76
2020/12/20 08:34:01;;;;;;;18.58;2.00;;;;;;;20.79;45.66;100090.00;5012409;28;20088;-79
2020/12/20 08:36:27;;;;;;;5.68;1.80;;;;;;;20.79;45.72;100090.00;5012571;28;20038;-76
2020/12/20 08:38:54;;;;;;;10.85;1.90;;;;;;;20.83;45.52;100102.19;5012689;28;20034;-78
2020/12/20 08:41:24;;;;;;;5.57;1.73;;;;;;;20.91;45.31;100103.75;5000919;28;20034;-75
2020/12/20 08:44:02;;;;;;;7.75;2.60;;;;;;;20.94;45.50;100104.53;4992786;28;20096;-78
2020/12/20 08:46:32;;;;;;;11.27;2.33;;;;;;;21.02;45.88;100109.59;4992362;28;20491;-79
2020/12/20 08:49:19;;;;;;;12.30;2.17;;;;;;;21.09;45.83;100115.59;4997481;28;20050;-77
2020/12/20 08:51:47;;;;;;;11.38;2.42;;;;;;;21.18;46.21;100117.13;5012368;28;20488;-78
2020/12/20 08:54:13;;;;;;;11.45;2.08;;;;;;;21.25;46.54;100119.56;5012388;28;20502;-78
2020/12/20 08:56:59;;;;;;;10.75;2.10;;;;;;;21.23;46.23;100124.00;5012555;28;20038;-77
2020/12/20 08:59:36;;;;;;;12.60;2.08;;;;;;;21.24;46.59;100125.72;5012448;28;20491;-78
2020/12/20 09:02:04;;;;;;;11.60;1.92;;;;;;;21.21;46.58;100127.56;5011661;28;20088;-77
2020/12/20 09:04:31;;;;;;;9.10;1.90;;;;;;;21.18;46.67;100136.41;5011845;28;20045;-77
2020/12/20 09:07:05;;;;;;;5.47;1.88;;;;;;;21.14;46.28;100142.66;5012159;28;20041;-75
2020/12/20 09:09:31;;;;;;;8.15;2.45;;;;;;;21.14;46.68;100143.53;5010737;28;20121;-78
2020/12/20 09:12:19;;;;;;;11.25;2.03;;;;;;;21.12;46.39;100155.88;5011990;28;20492;-78
2020/12/20 09:15:05;;;;;;;7.40;2.33;;;;;;;21.09;46.38;100155.13;5012244;28;20099;-73
2020/12/20 09:17:36;;;;;;;6.00;1.67;;;;;;;21.10;46.62;100157.69;4996933;28;20105;-73
2020/12/20 09:20:04;;;;;;;10.32;1.63;;;;;;;21.10;46.56;100165.59;4991702;28;20435;-78
2020/12/20 09:22:48;;;;;;;7.07;2.25;;;;;;;21.08;46.50;100158.66;5007303;28;20076;-74
2020/12/20 09:25:16;;;;;;;8.23;2.00;;;;;;;21.07;46.47;100160.41;4992376;28;20034;-76
2020/12/20 09:28:05;;;;;;;7.10;2.42;;;;;;;21.07;46.40;100160.41;5023751;28;20037;-71
2020/12/20 09:30:34;;;;;;;5.68;2.05;;;;;;;21.09;46.52;100155.13;5003071;28;20128;-77
2020/12/20 09:33:00;;;;;;;7.05;1.88;;;;;;;21.09;46.66;100166.50;5007721;28;20105;-80
2020/12/20 09:35:26;;;;;;;6.80;2.15;;;;;;;21.13;46.48;100159.38;4992343;28;20133;-72
2020/12/20 09:37:51;;;;;;;11.52;2.47;;;;;;;21.11;46.50;100164.69;4991066;28;20069;-76
2020/12/20 09:40:17;;;;;;;7.53;2.05;;;;;;;21.12;46.55;100165.53;4999765;28;20065;-79
2020/12/20 09:42:43;;;;;;;10.52;2.30;;;;;;;21.12;46.56;100165.53;4992332;28;20046;-77
2020/12/20 09:45:10;;;;;;;15.88;2.30;;;;;;;21.12;46.64;100155.88;5008312;28;20138;-78
2020/12/20 09:47:37;;;;;;;15.30;2.63;;;;;;;21.13;46.58;100159.38;4992435;28;20042;-78
2020/12/20 09:50:04;;;;;;;10.60;1.80;;;;;;;21.14;46.54;100155.84;5003645;28;20499;-79
2020/12/20 09:52:30;;;;;;;10.90;2.42;;;;;;;21.16;46.61;100161.09;5012597;28;20574;-77
2020/12/20 09:54:56;;;;;;;14.10;2.10;;;;;;;21.16;46.61;100166.34;5012588;28;20037;-78
2020/12/20 09:57:21;;;;;;;8.70;2.00;;;;;;;21.17;46.39;100163.66;5011828;28;20407;-76
2020/12/20 09:59:46;;;;;;;13.98;2.13;;;;;;;21.16;46.40;100156.66;5011915;28;20026;-71
2020/12/20 10:02:12;;;;;;;11.80;3.08;;;;;;;21.18;46.40;100156.66;5011054;28;20107;-78
2020/12/20 10:04:37;;;;;;;20.10;3.17;;;;;;;21.18;46.43;100159.28;5010236;28;20443;-79
2020/12/20 10:07:02;;;;;;;15.38;2.65;;;;;;;21.18;46.48;100154.88;5010764;28;20399;-78
2020/12/20 10:09:28;;;;;;;21.17;2.90;;;;;;;21.18;46.45;100165.41;5010135;28;20036;-81
2020/12/20 10:11:53;;;;;;;25.98;3.03;;;;;;;21.18;46.51;100160.13;5009129;28;20030;-77
2020/12/20 10:14:18;;;;;;;12.35;2.40;;;;;;;21.17;46.44;100161.03;5011014;28;20049;-74
2020/12/20 10:16:44;;;;;;;16.55;3.25;;;;;;;21.21;46.33;100159.19;5006709;28;20038;-74
2020/12/20 10:19:09;;;;;;;13.70;3.45;;;;;;;21.19;46.42;100156.59;5013669;28;20068;-73
2020/12/20 10:21:34;;;;;;;12.52;3.10;;;;;;;21.20;46.40;100160.97;5014268;28;20033;-79
2020/12/20 10:24:00;;;;;;;21.02;3.83;;;;;;;21.19;46.29;100150.44;5014958;28;20048;-77
2020/12/20 10:26:25;;;;;;;12.10;3.47;;;;;;;21.20;46.33;100152.19;5020477;28;20029;-76
2020/12/20 10:28:51;;;;;;;16.63;3.15;;;;;;;21.25;46.10;100143.28;5035303;28;20124;-76
2020/12/20 10:31:19;;;;;;;18.35;5.32;;;;;;;21.23;46.26;100152.09;5034542;28;20512;-72
2020/12/20 10:33:45;;;;;;;19.92;3.65;;;;;;;21.23;46.19;100150.34;5034473;28;20560;-76
2020/12/20 10:36:13;;;;;;;13.25;3.58;;;;;;;21.22;46.20;100153.00;5034314;28;20478;-75
2020/12/20 10:38:38;;;;;;;10.20;3.00;;;;;;;21.23;46.12;100152.09;5034350;28;20509;-73
2020/12/20 10:41:04;;;;;;;12.15;3.42;;;;;;;21.24;46.18;100149.44;5025038;28;20045;-78
2020/12/20 10:43:29;;;;;;;13.35;2.75;;;;;;;21.23;46.20;100144.19;5014403;28;20038;-78
2020/12/20 10:45:54;;;;;;;26.88;3.05;;;;;;;21.20;46.15;100145.16;5014051;28;20045;-78
2020/12/20 10:48:21;;;;;;;10.27;3.42;;;;;;;21.21;46.18;100149.53;5014656;28;20101;-76
2020/12/20 10:50:47;;;;;;;14.73;3.13;;;;;;;21.20;46.21;100137.25;5014777;28;20037;-79
2020/12/20 10:53:12;;;;;;;12.10;3.10;;;;;;;21.19;46.35;100132.88;5014605;28;20037;-73
2020/12/20 10:55:38;;;;;;;10.93;2.60;;;;;;;21.22;46.41;100131.91;5013185;28;20037;-77
2020/12/20 10:58:03;;;;;;;9.52;3.17;;;;;;;21.23;46.18;100131.00;5014239;28;20038;-77
2020/12/20 11:00:29;;;;;;;7.35;2.90;;;;;;;21.25;46.19;100139.75;5014251;28;20498;-78
2020/12/20 11:02:54;;;;;;;14.43;4.05;;;;;;;21.25;46.04;100135.38;5014134;28;20037;-77
2020/12/20 11:05:19;;;;;;;19.30;3.03;;;;;;;21.26;46.12;100136.22;5014192;28;20037;-72
2020/12/20 11:07:45;;;;;;;9.73;2.92;;;;;;;21.27;46.13;100133.53;5014280;28;20040;-77
2020/12/20 11:10:10;;;;;;;11.15;2.83;;;;;;;21.27;46.14;100135.31;5014033;28;20030;-77
2020/12/20 11:12:35;;;;;;;9.45;2.58;;;;;;;21.26;46.05;100126.53;5013705;28;20030;-73
2020/12/20 11:15:01;;;;;;;13.45;2.90;;;;;;;21.29;46.02;100136.13;5014557;28;20121;-78
2020/12/20 11:17:26;;;;;;;14.95;3.05;;;;;;;21.31;46.03;100113.25;5009823;28;20040;-75
2020/12/20 11:19:54;;;;;;;10.15;2.53;;;;;;;21.33;46.09;100118.47;5014749;28;20042;-77
2020/12/20 11:22:20;;;;;;;17.52;2.75;;;;;;;21.36;45.99;100115.75;5029401;28;20441;-75
2020/12/20 11:24:45;;;;;;;13.73;2.80;;;;;;;21.37;45.92;100113.06;5013917;28;20038;-75
2020/12/20 11:27:11;;;;;;;16.15;4.57;;;;;;;21.40;45.97;100120.88;5024859;28;20029;-78
2020/12/20 11:29:39;;;;;;;24.67;4.57;;;;;;;21.39;46.05;100118.31;5033762;28;20088;-76